sensor_id;sensor_type;location;lat;lon;timestamp;pressure;altitude;pressure_sealevel;temperature;humidity
40502;BME280;29631;49.168;9.848;2023-01-25T00:00:19;98225.09;;;8.86;82.31
40502;BME280;29631;49.168;9.848;2023-01-25T00:02:44;98218.16;;;8.85;82.34
40502;BME280;29631;49.168;9.848;2023-01-25T00:05:10;98243.88;;;8.91;82.53
40502;BME280;29631;49.168;9.848;2023-01-25T00:07:36;98233.03;;;8.94;82.51
40502;BME280;29631;49.168;9.848;2023-01-25T00:10:02;98208.66;;;8.84;82.59
40502;BME280;29631;49.168;9.848;2023-01-25T00:12:28;98228.41;;;8.88;82.47
40502;BME280;29631;49.168;9.848;2023-01-25T00:14:53;98223.75;;;8.82;83.02
40502;BME280;29631;49.168;9.848;2023-01-25T00:17:19;98235.59;;;8.86;82.37
40502;BME280;29631;49.168;9.848;2023-01-25T00:19:45;98251.59;;;8.93;82.26
40502;BME280;29631;49.168;9.848;2023-01-25T00:22:10;98233.66;;;8.88;82.68
40502;BME280;29631;49.168;9.848;2023-01-25T00:24:36;98227.09;;;8.92;82.58
40502;BME280;29631;49.168;9.848;2023-01-25T00:27:02;98232.22;;;8.94;82.40
40502;BME280;29631;49.168;9.848;2023-01-25T00:29:28;98202.22;;;8.79;82.93
40502;BME280;29631;49.168;9.848;2023-01-25T00:39:30;98207.81;;;8.84;82.16
40502;BME280;29631;49.168;9.848;2023-01-25T00:41:56;98195.81;;;8.81;82.16
40502;BME280;29631;49.168;9.848;2023-01-25T00:44:22;98181.97;;;8.71;82.22
40502;BME280;29631;49.168;9.848;2023-01-25T00:46:47;98185.63;;;8.78;82.09
40502;BME280;29631;49.168;9.848;2023-01-25T00:49:23;98179.69;;;8.76;81.73
40502;BME280;29631;49.168;9.848;2023-01-25T00:51:51;98210.34;;;8.93;81.69
40502;BME280;29631;49.168;9.848;2023-01-25T00:54:17;98192.72;;;8.86;82.58
40502;BME280;29631;49.168;9.848;2023-01-25T00:56:44;98199.81;;;8.93;82.54
40502;BME280;29631;49.168;9.848;2023-01-25T00:59:10;98160.94;;;8.71;82.85
40502;BME280;29631;49.168;9.848;2023-01-25T01:01:37;98200.44;;;8.87;82.22
40502;BME280;29631;49.168;9.848;2023-01-25T01:04:04;98186.63;;;8.85;81.97
40502;BME280;29631;49.168;9.848;2023-01-25T01:06:30;98190.09;;;8.86;81.69
40502;BME280;29631;49.168;9.848;2023-01-25T01:08:56;98183.66;;;8.80;82.61
40502;BME280;29631;49.168;9.848;2023-01-25T01:11:22;98180.38;;;8.78;82.60
40502;BME280;29631;49.168;9.848;2023-01-25T01:13:47;98203.53;;;8.83;82.67
40502;BME280;29631;49.168;9.848;2023-01-25T01:16:13;98186.22;;;8.72;81.84
40502;BME280;29631;49.168;9.848;2023-01-25T01:18:42;98210.28;;;8.85;81.86
40502;BME280;29631;49.168;9.848;2023-01-25T01:21:11;98204.50;;;8.82;81.99
40502;BME280;29631;49.168;9.848;2023-01-25T01:23:38;98212.91;;;8.85;81.68
40502;BME280;29631;49.168;9.848;2023-01-25T01:26:07;98204.03;;;8.78;82.91
40502;BME280;29631;49.168;9.848;2023-01-25T01:28:35;98200.41;;;8.79;82.54
40502;BME280;29631;49.168;9.848;2023-01-25T01:31:07;98198.91;;;8.77;82.66
40502;BME280;29631;49.168;9.848;2023-01-25T01:33:33;98203.53;;;8.83;82.40
40502;BME280;29631;49.168;9.848;2023-01-25T01:36:10;98211.91;;;8.78;81.94
40502;BME280;29631;49.168;9.848;2023-01-25T01:38:37;98213.41;;;8.81;82.46
40502;BME280;29631;49.168;9.848;2023-01-25T01:41:03;98211.75;;;8.80;82.38
40502;BME280;29631;49.168;9.848;2023-01-25T01:43:29;98223.94;;;8.81;82.57
40502;BME280;29631;49.168;9.848;2023-01-25T01:45:59;98208.91;;;8.73;82.44
40502;BME280;29631;49.168;9.848;2023-01-25T01:48:50;98209.22;;;8.70;81.91
40502;BME280;29631;49.168;9.848;2023-01-25T01:54:16;98202.31;;;8.69;82.39
40502;BME280;29631;49.168;9.848;2023-01-25T01:56:58;98220.78;;;8.77;81.84
40502;BME280;29631;49.168;9.848;2023-01-25T01:59:32;98228.00;;;8.75;82.13
40502;BME280;29631;49.168;9.848;2023-01-25T02:01:59;98187.47;;;8.61;81.70
40502;BME280;29631;49.168;9.848;2023-01-25T02:04:26;98213.66;;;8.70;81.87
40502;BME280;29631;49.168;9.848;2023-01-25T02:07:09;98202.09;;;8.63;81.98
40502;BME280;29631;49.168;9.848;2023-01-25T02:09:38;98215.75;;;8.66;81.50
40502;BME280;29631;49.168;9.848;2023-01-25T02:12:05;98214.44;;;8.63;81.90
40502;BME280;29631;49.168;9.848;2023-01-25T02:14:32;98212.47;;;8.65;81.56
40502;BME280;29631;49.168;9.848;2023-01-25T02:16:59;98184.81;;;8.53;81.77
40502;BME280;29631;49.168;9.848;2023-01-25T02:19:53;98199.28;;;8.57;82.04
40502;BME280;29631;49.168;9.848;2023-01-25T02:22:26;98177.91;;;8.52;82.87
40502;BME280;29631;49.168;9.848;2023-01-25T02:25:22;98172.13;;;8.48;82.78
40502;BME280;29631;49.168;9.848;2023-01-25T02:27:56;98176.41;;;8.49;81.73
40502;BME280;29631;49.168;9.848;2023-01-25T02:30:24;98182.03;;;8.54;82.15
40502;BME280;29631;49.168;9.848;2023-01-25T02:32:49;98154.81;;;8.38;82.05
40502;BME280;29631;49.168;9.848;2023-01-25T02:35:39;98173.44;;;8.52;82.67
40502;BME280;29631;49.168;9.848;2023-01-25T02:38:06;98165.91;;;8.49;82.26
40502;BME280;29631;49.168;9.848;2023-01-25T02:40:40;98185.00;;;8.59;81.69
40502;BME280;29631;49.168;9.848;2023-01-25T02:43:08;98177.75;;;8.53;82.67
40502;BME280;29631;49.168;9.848;2023-01-25T02:45:34;98170.66;;;8.54;81.97
40502;BME280;29631;49.168;9.848;2023-01-25T02:48:00;98176.31;;;8.59;82.87
40502;BME280;29631;49.168;9.848;2023-01-25T02:50:25;98174.31;;;8.53;82.36
40502;BME280;29631;49.168;9.848;2023-01-25T02:52:51;98164.88;;;8.50;82.63
40502;BME280;29631;49.168;9.848;2023-01-25T02:55:17;98178.81;;;8.43;82.42
40502;BME280;29631;49.168;9.848;2023-01-25T02:57:43;98169.34;;;8.50;82.11
40502;BME280;29631;49.168;9.848;2023-01-25T03:00:09;98185.50;;;8.63;82.16
40502;BME280;29631;49.168;9.848;2023-01-25T03:02:35;98164.59;;;8.53;82.35
40502;BME280;29631;49.168;9.848;2023-01-25T03:05:01;98156.19;;;8.50;81.84
40502;BME280;29631;49.168;9.848;2023-01-25T03:07:27;98161.09;;;8.45;82.34
40502;BME280;29631;49.168;9.848;2023-01-25T03:09:52;98162.25;;;8.42;81.52
40502;BME280;29631;49.168;9.848;2023-01-25T03:12:18;98159.72;;;8.33;82.28
40502;BME280;29631;49.168;9.848;2023-01-25T03:14:44;98152.44;;;8.27;81.88
40502;BME280;29631;49.168;9.848;2023-01-25T03:17:10;98138.72;;;8.15;81.75
40502;BME280;29631;49.168;9.848;2023-01-25T03:19:36;98169.53;;;8.31;81.72
40502;BME280;29631;49.168;9.848;2023-01-25T03:22:01;98159.94;;;8.22;81.71
40502;BME280;29631;49.168;9.848;2023-01-25T03:24:27;98158.28;;;8.21;82.22
40502;BME280;29631;49.168;9.848;2023-01-25T03:26:53;98166.84;;;8.23;82.09
40502;BME280;29631;49.168;9.848;2023-01-25T03:29:39;98143.06;;;8.07;82.44
40502;BME280;29631;49.168;9.848;2023-01-25T03:32:06;98164.03;;;8.16;82.24
40502;BME280;29631;49.168;9.848;2023-01-25T03:34:32;98142.69;;;8.02;82.49
40502;BME280;29631;49.168;9.848;2023-01-25T03:36:58;98137.22;;;7.95;81.85
40502;BME280;29631;49.168;9.848;2023-01-25T03:39:23;98082.28;;;7.59;82.04
40502;BME280;29631;49.168;9.848;2023-01-25T03:41:49;98157.81;;;8.08;81.61
40502;BME280;29631;49.168;9.848;2023-01-25T03:44:15;98148.97;;;8.09;82.49
40502;BME280;29631;49.168;9.848;2023-01-25T03:46:41;98145.31;;;8.02;81.79
40502;BME280;29631;49.168;9.848;2023-01-25T03:49:07;98092.63;;;7.61;81.99
40502;BME280;29631;49.168;9.848;2023-01-25T03:51:33;98131.38;;;7.84;81.66
40502;BME280;29631;49.168;9.848;2023-01-25T03:53:59;98151.78;;;7.90;82.51
40502;BME280;29631;49.168;9.848;2023-01-25T03:56:25;98119.19;;;7.75;81.44
40502;BME280;29631;49.168;9.848;2023-01-25T03:58:51;98146.44;;;7.82;82.17
40502;BME280;29631;49.168;9.848;2023-01-25T04:01:17;98122.09;;;7.72;82.55
40502;BME280;29631;49.168;9.848;2023-01-25T04:03:43;98129.72;;;7.83;82.01
40502;BME280;29631;49.168;9.848;2023-01-25T04:06:08;98132.06;;;7.86;81.88
40502;BME280;29631;49.168;9.848;2023-01-25T04:08:35;98125.97;;;7.86;82.82
40502;BME280;29631;49.168;9.848;2023-01-25T04:11:04;98119.91;;;7.85;82.51
40502;BME280;29631;49.168;9.848;2023-01-25T04:13:32;98131.91;;;7.88;82.69
40502;BME280;29631;49.168;9.848;2023-01-25T04:16:05;98101.00;;;7.82;82.47
40502;BME280;29631;49.168;9.848;2023-01-25T04:18:31;98123.94;;;7.97;82.57
40502;BME280;29631;49.168;9.848;2023-01-25T04:20:57;98126.03;;;7.93;82.94
40502;BME280;29631;49.168;9.848;2023-01-25T04:23:24;98101.69;;;7.84;81.95
40502;BME280;29631;49.168;9.848;2023-01-25T04:26:00;98098.91;;;7.85;82.71
40502;BME280;29631;49.168;9.848;2023-01-25T04:28:28;98123.13;;;7.96;83.01
40502;BME280;29631;49.168;9.848;2023-01-25T04:30:55;98119.22;;;8.00;82.33
40502;BME280;29631;49.168;9.848;2023-01-25T04:33:21;98118.06;;;8.03;82.32
40502;BME280;29631;49.168;9.848;2023-01-25T04:35:47;98111.50;;;7.99;83.02
40502;BME280;29631;49.168;9.848;2023-01-25T04:38:13;98131.38;;;8.01;82.72
40502;BME280;29631;49.168;9.848;2023-01-25T04:40:39;98108.50;;;7.94;82.14
40502;BME280;29631;49.168;9.848;2023-01-25T04:43:05;98102.50;;;7.84;82.09
40502;BME280;29631;49.168;9.848;2023-01-25T04:45:31;98129.19;;;7.97;82.35
40502;BME280;29631;49.168;9.848;2023-01-25T04:48:02;98099.19;;;7.82;82.88
40502;BME280;29631;49.168;9.848;2023-01-25T04:50:28;98114.41;;;7.96;82.73
40502;BME280;29631;49.168;9.848;2023-01-25T04:52:54;98119.00;;;7.94;82.66
40502;BME280;29631;49.168;9.848;2023-01-25T04:55:20;98123.66;;;8.00;82.32
40502;BME280;29631;49.168;9.848;2023-01-25T04:57:48;98108.50;;;7.94;82.28
40502;BME280;29631;49.168;9.848;2023-01-25T05:00:16;98118.53;;;7.98;82.71
40502;BME280;29631;49.168;9.848;2023-01-25T05:02:42;98112.09;;;7.93;81.97
40502;BME280;29631;49.168;9.848;2023-01-25T05:05:09;98087.97;;;7.72;82.51
40502;BME280;29631;49.168;9.848;2023-01-25T05:07:35;98116.06;;;7.97;83.02
40502;BME280;29631;49.168;9.848;2023-01-25T05:10:00;98080.19;;;7.80;82.37
40502;BME280;29631;49.168;9.848;2023-01-25T05:12:26;98106.84;;;7.93;82.18
40502;BME280;29631;49.168;9.848;2023-01-25T05:14:52;98071.63;;;7.78;82.80
40502;BME280;29631;49.168;9.848;2023-01-25T05:17:17;98095.38;;;7.94;82.00
40502;BME280;29631;49.168;9.848;2023-01-25T05:19:43;98085.84;;;7.93;82.23
40502;BME280;29631;49.168;9.848;2023-01-25T05:22:17;98063.97;;;7.85;83.02
40502;BME280;29631;49.168;9.848;2023-01-25T05:24:46;98078.63;;;7.95;82.66
40502;BME280;29631;49.168;9.848;2023-01-25T05:27:15;98068.44;;;7.92;83.00
40502;BME280;29631;49.168;9.848;2023-01-25T05:29:43;98079.31;;;7.97;83.23
40502;BME280;29631;49.168;9.848;2023-01-25T05:32:17;98077.19;;;8.00;82.69
40502;BME280;29631;49.168;9.848;2023-01-25T05:34:43;98084.00;;;8.11;82.19
40502;BME280;29631;49.168;9.848;2023-01-25T05:37:16;98070.16;;;8.01;82.30
40502;BME280;29631;49.168;9.848;2023-01-25T05:39:42;98093.38;;;8.13;83.26
40502;BME280;29631;49.168;9.848;2023-01-25T05:42:16;98070.00;;;8.02;82.34
40502;BME280;29631;49.168;9.848;2023-01-25T05:44:43;98064.91;;;8.01;82.15
40502;BME280;29631;49.168;9.848;2023-01-25T05:47:15;98064.53;;;7.96;83.00
40502;BME280;29631;49.168;9.848;2023-01-25T05:49:41;98079.56;;;8.11;83.11
40502;BME280;29631;49.168;9.848;2023-01-25T05:52:06;98084.00;;;8.11;82.86
40502;BME280;29631;49.168;9.848;2023-01-25T05:54:35;98083.72;;;8.14;82.23
40502;BME280;29631;49.168;9.848;2023-01-25T05:57:01;98044.16;;;7.90;82.78
40502;BME280;29631;49.168;9.848;2023-01-25T05:59:27;98062.28;;;8.01;82.76
40502;BME280;29631;49.168;9.848;2023-01-25T06:01:52;98089.25;;;8.11;82.06
40502;BME280;29631;49.168;9.848;2023-01-25T06:04:18;98067.63;;;7.92;82.27
40502;BME280;29631;49.168;9.848;2023-01-25T06:06:44;98076.38;;;8.00;82.65
40502;BME280;29631;49.168;9.848;2023-01-25T06:09:12;98072.28;;;7.97;82.45
40502;BME280;29631;49.168;9.848;2023-01-25T06:11:37;98073.38;;;7.95;81.90
40502;BME280;29631;49.168;9.848;2023-01-25T06:14:03;98060.34;;;7.86;82.30
40502;BME280;29631;49.168;9.848;2023-01-25T06:16:29;98042.06;;;7.76;82.40
40502;BME280;29631;49.168;9.848;2023-01-25T06:18:55;98043.38;;;7.72;82.50
40502;BME280;29631;49.168;9.848;2023-01-25T06:21:20;98063.91;;;7.77;81.97
40502;BME280;29631;49.168;9.848;2023-01-25T06:23:46;98060.41;;;7.68;82.47
40502;BME280;29631;49.168;9.848;2023-01-25T06:26:14;98074.94;;;7.80;82.04
40502;BME280;29631;49.168;9.848;2023-01-25T06:28:40;98063.06;;;7.76;82.15
40502;BME280;29631;49.168;9.848;2023-01-25T06:31:16;98054.16;;;7.69;82.13
40502;BME280;29631;49.168;9.848;2023-01-25T06:33:48;98073.63;;;7.84;82.64
40502;BME280;29631;49.168;9.848;2023-01-25T06:36:17;98065.09;;;7.82;82.57
40502;BME280;29631;49.168;9.848;2023-01-25T06:38:48;98064.44;;;7.80;82.51
40502;BME280;29631;49.168;9.848;2023-01-25T06:41:15;98070.84;;;7.86;82.10
40502;BME280;29631;49.168;9.848;2023-01-25T06:43:41;98039.59;;;7.75;82.73
40502;BME280;29631;49.168;9.848;2023-01-25T06:46:08;98040.75;;;7.72;82.25
40502;BME280;29631;49.168;9.848;2023-01-25T06:48:36;98046.06;;;7.80;82.08
40502;BME280;29631;49.168;9.848;2023-01-25T06:51:05;98038.47;;;7.77;82.27
40502;BME280;29631;49.168;9.848;2023-01-25T06:53:34;98048.88;;;7.87;82.75
40502;BME280;29631;49.168;9.848;2023-01-25T06:56:03;98058.31;;;7.97;82.59
40502;BME280;29631;49.168;9.848;2023-01-25T06:58:30;98057.34;;;7.98;82.37
40502;BME280;29631;49.168;9.848;2023-01-25T07:01:20;98043.00;;;7.92;82.12
40502;BME280;29631;49.168;9.848;2023-01-25T07:03:52;98063.63;;;8.05;81.79
40502;BME280;29631;49.168;9.848;2023-01-25T07:06:19;98061.97;;;8.04;81.83
40502;BME280;29631;49.168;9.848;2023-01-25T07:08:45;98045.19;;;7.97;82.75
40502;BME280;29631;49.168;9.848;2023-01-25T07:11:13;98048.47;;;7.99;82.55
40502;BME280;29631;49.168;9.848;2023-01-25T07:13:41;98041.88;;;7.95;82.29
40502;BME280;29631;49.168;9.848;2023-01-25T07:16:17;98036.34;;;7.98;82.51
40502;BME280;29631;49.168;9.848;2023-01-25T07:18:43;98031.38;;;7.95;82.61
40502;BME280;29631;49.168;9.848;2023-01-25T07:21:16;98075.44;;;8.09;82.36
40502;BME280;29631;49.168;9.848;2023-01-25T07:23:43;98047.19;;;8.03;82.38
40502;BME280;29631;49.168;9.848;2023-01-25T07:26:25;98053.63;;;8.08;82.05
40502;BME280;29631;49.168;9.848;2023-01-25T07:28:52;98054.81;;;8.14;82.48
40502;BME280;29631;49.168;9.848;2023-01-25T07:31:19;98042.09;;;8.01;82.31
40502;BME280;29631;49.168;9.848;2023-01-25T07:33:50;98046.72;;;8.07;82.80
40502;BME280;29631;49.168;9.848;2023-01-25T07:36:16;98028.81;;;8.03;82.56
40502;BME280;29631;49.168;9.848;2023-01-25T07:38:43;98031.44;;;8.03;82.68
40502;BME280;29631;49.168;9.848;2023-01-25T07:41:09;98045.44;;;8.11;82.67
40502;BME280;29631;49.168;9.848;2023-01-25T07:43:35;97980.75;;;7.77;82.46
40502;BME280;29631;49.168;9.848;2023-01-25T07:46:04;98050.25;;;8.16;82.93
40502;BME280;29631;49.168;9.848;2023-01-25T07:48:30;98037.34;;;8.05;82.12
40502;BME280;29631;49.168;9.848;2023-01-25T07:50:59;98047.25;;;8.11;82.29
40502;BME280;29631;49.168;9.848;2023-01-25T07:56:23;98045.16;;;8.14;82.05
40502;BME280;29631;49.168;9.848;2023-01-25T07:58:51;98040.34;;;8.10;81.82
40502;BME280;29631;49.168;9.848;2023-01-25T08:01:18;97991.09;;;7.79;81.98
40502;BME280;29631;49.168;9.848;2023-01-25T08:03:45;98038.69;;;8.09;82.82
40502;BME280;29631;49.168;9.848;2023-01-25T08:06:12;98042.00;;;8.11;82.32
40502;BME280;29631;49.168;9.848;2023-01-25T08:08:44;98045.59;;;8.10;82.12
40502;BME280;29631;49.168;9.848;2023-01-25T08:11:20;98050.13;;;8.17;81.86
40502;BME280;29631;49.168;9.848;2023-01-25T08:13:47;98055.22;;;8.19;82.20
40502;BME280;29631;49.168;9.848;2023-01-25T08:16:16;98049.31;;;8.25;82.65
40502;BME280;29631;49.168;9.848;2023-01-25T08:18:46;98038.09;;;8.15;81.95
40502;BME280;29631;49.168;9.848;2023-01-25T08:21:12;98051.59;;;8.20;82.54
40502;BME280;29631;49.168;9.848;2023-01-25T08:23:38;98059.00;;;8.24;81.87
40502;BME280;29631;49.168;9.848;2023-01-25T08:26:05;98057.03;;;8.26;82.35
40502;BME280;29631;49.168;9.848;2023-01-25T08:28:31;98052.94;;;8.24;81.79
40502;BME280;29631;49.168;9.848;2023-01-25T08:31:08;98066.41;;;8.29;82.08
40502;BME280;29631;49.168;9.848;2023-01-25T08:33:35;98070.84;;;8.28;81.99
40502;BME280;29631;49.168;9.848;2023-01-25T08:36:02;98020.16;;;8.10;82.46
40502;BME280;29631;49.168;9.848;2023-01-25T08:38:28;98030.59;;;8.20;82.21
40502;BME280;29631;49.168;9.848;2023-01-25T08:40:54;98029.13;;;8.25;81.85
40502;BME280;29631;49.168;9.848;2023-01-25T08:43:19;98036.25;;;8.33;82.37
40502;BME280;29631;49.168;9.848;2023-01-25T08:45:45;98024.19;;;8.22;82.33
40502;BME280;29631;49.168;9.848;2023-01-25T08:48:12;98023.75;;;8.27;81.92
40502;BME280;29631;49.168;9.848;2023-01-25T08:50:47;98029.13;;;8.25;82.30
40502;BME280;29631;49.168;9.848;2023-01-25T08:53:13;98022.38;;;8.23;81.36
40502;BME280;29631;49.168;9.848;2023-01-25T08:55:39;98036.88;;;8.35;81.75
40502;BME280;29631;49.168;9.848;2023-01-25T08:58:09;98011.19;;;8.21;82.25
40502;BME280;29631;49.168;9.848;2023-01-25T09:00:37;98000.53;;;8.14;82.05
40502;BME280;29631;49.168;9.848;2023-01-25T09:03:03;97998.84;;;8.13;82.34
40502;BME280;29631;49.168;9.848;2023-01-25T09:05:29;98023.06;;;8.25;82.26
40502;BME280;29631;49.168;9.848;2023-01-25T09:07:55;98026.03;;;8.30;82.37
40502;BME280;29631;49.168;9.848;2023-01-25T09:10:20;98034.59;;;8.32;82.25
40502;BME280;29631;49.168;9.848;2023-01-25T09:12:46;98030.81;;;8.34;81.46
40502;BME280;29631;49.168;9.848;2023-01-25T09:15:12;97997.88;;;8.14;81.46
40502;BME280;29631;49.168;9.848;2023-01-25T09:17:37;98024.91;;;8.32;81.34
40502;BME280;29631;49.168;9.848;2023-01-25T09:20:06;97976.47;;;8.01;81.44
40502;BME280;29631;49.168;9.848;2023-01-25T09:22:32;98018.84;;;8.32;81.78
40502;BME280;29631;49.168;9.848;2023-01-25T09:24:57;98027.34;;;8.34;82.45
40502;BME280;29631;49.168;9.848;2023-01-25T09:27:23;98002.34;;;8.22;81.72
40502;BME280;29631;49.168;9.848;2023-01-25T09:29:49;98000.06;;;8.19;81.61
40502;BME280;29631;49.168;9.848;2023-01-25T09:32:14;97991.19;;;8.20;81.95
40502;BME280;29631;49.168;9.848;2023-01-25T09:34:40;97980.91;;;8.09;81.60
40502;BME280;29631;49.168;9.848;2023-01-25T09:37:06;97996.44;;;8.20;82.18
40502;BME280;29631;49.168;9.848;2023-01-25T09:39:32;97977.66;;;8.07;82.54
40502;BME280;29631;49.168;9.848;2023-01-25T09:50:37;97995.88;;;8.08;81.33
40502;BME280;29631;49.168;9.848;2023-01-25T09:53:30;97996.31;;;8.04;81.78
40502;BME280;29631;49.168;9.848;2023-01-25T09:56:21;97992.38;;;8.00;81.22
40502;BME280;29631;49.168;9.848;2023-01-25T09:58:55;97995.97;;;7.99;82.12
40502;BME280;29631;49.168;9.848;2023-01-25T10:01:50;97988.09;;;7.99;81.93
40502;BME280;29631;49.168;9.848;2023-01-25T10:04:22;97993.41;;;8.07;81.97
40502;BME280;29631;49.168;9.848;2023-01-25T10:06:53;97987.78;;;8.02;81.79
40502;BME280;29631;49.168;9.848;2023-01-25T10:09:59;97985.00;;;8.03;82.41
40502;BME280;29631;49.168;9.848;2023-01-25T10:12:35;97994.38;;;8.06;82.24
40502;BME280;29631;49.168;9.848;2023-01-25T10:15:01;97992.09;;;8.11;82.49
40502;BME280;29631;49.168;9.848;2023-01-25T10:17:38;97992.78;;;8.13;81.56
40502;BME280;29631;49.168;9.848;2023-01-25T10:29:26;97986.91;;;8.19;81.52
40502;BME280;29631;49.168;9.848;2023-01-25T10:31:50;97982.13;;;8.14;81.60
40502;BME280;29631;49.168;9.848;2023-01-25T10:34:32;97949.53;;;7.99;81.51
40502;BME280;29631;49.168;9.848;2023-01-25T10:37:13;97970.13;;;8.12;82.30
40502;BME280;29631;49.168;9.848;2023-01-25T10:39:52;97962.91;;;8.14;82.08
40502;BME280;29631;49.168;9.848;2023-01-25T10:42:21;97978.06;;;8.28;82.26
40502;BME280;29631;49.168;9.848;2023-01-25T10:44:48;97939.53;;;8.03;81.88
40502;BME280;29631;49.168;9.848;2023-01-25T10:47:30;97969.84;;;8.23;81.75
40502;BME280;29631;49.168;9.848;2023-01-25T10:49:59;97963.31;;;8.27;82.19
40502;BME280;29631;49.168;9.848;2023-01-25T10:52:31;97975.81;;;8.33;81.45
40502;BME280;29631;49.168;9.848;2023-01-25T10:55:18;97970.88;;;8.30;81.92
40502;BME280;29631;49.168;9.848;2023-01-25T10:57:49;97956.41;;;8.26;81.51
40502;BME280;29631;49.168;9.848;2023-01-25T11:00:41;97967.94;;;8.33;81.77
40502;BME280;29631;49.168;9.848;2023-01-25T11:03:20;97947.88;;;8.24;81.65
40502;BME280;29631;49.168;9.848;2023-01-25T11:05:54;97956.28;;;8.35;81.66
40502;BME280;29631;49.168;9.848;2023-01-25T11:10:54;97944.94;;;8.35;81.97
40502;BME280;29631;49.168;9.848;2023-01-25T11:13:27;97924.44;;;8.30;82.14
40502;BME280;29631;49.168;9.848;2023-01-25T11:18:33;97911.47;;;8.37;81.55
40502;BME280;29631;49.168;9.848;2023-01-25T11:21:14;97921.34;;;8.43;82.27
40502;BME280;29631;49.168;9.848;2023-01-25T11:23:56;97899.28;;;8.28;81.45
40502;BME280;29631;49.168;9.848;2023-01-25T11:26:22;97905.22;;;8.38;81.60
40502;BME280;29631;49.168;9.848;2023-01-25T11:28:48;97888.13;;;8.26;81.56
40502;BME280;29631;49.168;9.848;2023-01-25T11:31:19;97917.72;;;8.44;82.08
40502;BME280;29631;49.168;9.848;2023-01-25T11:33:46;97876.25;;;8.14;81.53
40502;BME280;29631;49.168;9.848;2023-01-25T11:39:27;97905.75;;;8.49;82.39
40502;BME280;29631;49.168;9.848;2023-01-25T11:42:26;97899.66;;;8.49;81.46
40502;BME280;29631;49.168;9.848;2023-01-25T11:50:51;97871.25;;;8.36;82.00
40502;BME280;29631;49.168;9.848;2023-01-25T11:56:13;97844.13;;;8.28;81.34
40502;BME280;29631;49.168;9.848;2023-01-25T12:02:45;97853.97;;;8.34;81.87
40502;BME280;29631;49.168;9.848;2023-01-25T12:14:10;97816.22;;;8.35;81.44
40502;BME280;29631;49.168;9.848;2023-01-25T12:19:56;97803.75;;;8.37;81.97
40502;BME280;29631;49.168;9.848;2023-01-25T12:22:51;97788.66;;;8.31;82.35
40502;BME280;29631;49.168;9.848;2023-01-25T12:25:37;97794.72;;;8.39;81.34
40502;BME280;29631;49.168;9.848;2023-01-25T12:28:26;97775.19;;;8.34;82.09
40502;BME280;29631;49.168;9.848;2023-01-25T12:34:03;97781.09;;;8.44;82.12
40502;BME280;29631;49.168;9.848;2023-01-25T12:36:45;97765.16;;;8.37;81.53
40502;BME280;29631;49.168;9.848;2023-01-25T12:39:24;97764.53;;;8.43;81.22
40502;BME280;29631;49.168;9.848;2023-01-25T12:42:15;97745.31;;;8.35;81.74
40502;BME280;29631;49.168;9.848;2023-01-25T12:45:01;97749.75;;;8.34;81.72
40502;BME280;29631;49.168;9.848;2023-01-25T12:47:41;97749.06;;;8.32;81.91
40502;BME280;29631;49.168;9.848;2023-01-25T12:50:19;97756.47;;;8.37;81.76
40502;BME280;29631;49.168;9.848;2023-01-25T12:52:58;97734.16;;;8.25;81.88
40502;BME280;29631;49.168;9.848;2023-01-25T12:55:26;97719.38;;;8.16;81.47
40502;BME280;29631;49.168;9.848;2023-01-25T13:06:51;97723.97;;;8.30;81.96
40502;BME280;29631;49.168;9.848;2023-01-25T13:10:03;97718.03;;;8.28;82.05
40502;BME280;29631;49.168;9.848;2023-01-25T13:12:48;97730.38;;;8.35;81.28
40502;BME280;29631;49.168;9.848;2023-01-25T13:15:40;97719.88;;;8.35;81.92
40502;BME280;29631;49.168;9.848;2023-01-25T13:20:56;97707.06;;;8.32;81.46
40502;BME280;29631;49.168;9.848;2023-01-25T13:23:39;97700.31;;;8.30;82.04
40502;BME280;29631;49.168;9.848;2023-01-25T13:28:48;97669.63;;;8.14;81.35
40502;BME280;29631;49.168;9.848;2023-01-25T13:34:12;97708.22;;;8.30;81.34
40502;BME280;29631;49.168;9.848;2023-01-25T13:42:16;97693.78;;;8.26;81.52
40502;BME280;29631;49.168;9.848;2023-01-25T13:44:46;97677.84;;;8.19;81.90
40502;BME280;29631;49.168;9.848;2023-01-25T13:47:22;97672.94;;;8.16;81.24
40502;BME280;29631;49.168;9.848;2023-01-25T13:52:38;97655.19;;;8.02;82.19
40502;BME280;29631;49.168;9.848;2023-01-25T13:55:20;97663.56;;;8.14;81.44
40502;BME280;29631;49.168;9.848;2023-01-25T13:57:45;97658.28;;;8.14;82.10
40502;BME280;29631;49.168;9.848;2023-01-25T14:00:16;97655.00;;;8.12;82.20
40502;BME280;29631;49.168;9.848;2023-01-25T14:02:45;97658.81;;;8.17;82.21
40502;BME280;29631;49.168;9.848;2023-01-25T14:05:24;97662.91;;;8.20;81.63
40502;BME280;29631;49.168;9.848;2023-01-25T14:07:53;97661.75;;;8.22;81.48
40502;BME280;29631;49.168;9.848;2023-01-25T14:10:26;97636.97;;;8.01;82.03
40502;BME280;29631;49.168;9.848;2023-01-25T14:12:57;97656.16;;;8.09;81.53
40502;BME280;29631;49.168;9.848;2023-01-25T14:15:28;97650.72;;;8.03;81.98
40502;BME280;29631;49.168;9.848;2023-01-25T14:18:18;97650.09;;;8.01;81.62
40502;BME280;29631;49.168;9.848;2023-01-25T14:20:49;97645.00;;;7.99;81.74
40502;BME280;29631;49.168;9.848;2023-01-25T14:23:28;97633.34;;;7.94;82.31
40502;BME280;29631;49.168;9.848;2023-01-25T14:25:57;97641.88;;;8.04;82.13
40502;BME280;29631;49.168;9.848;2023-01-25T14:28:25;97651.41;;;8.13;81.97
40502;BME280;29631;49.168;9.848;2023-01-25T14:30:54;97644.19;;;8.07;81.64
40502;BME280;29631;49.168;9.848;2023-01-25T14:33:32;97658.78;;;8.25;81.50
40502;BME280;29631;49.168;9.848;2023-01-25T14:36:08;97606.09;;;7.95;82.22
40502;BME280;29631;49.168;9.848;2023-01-25T14:38:39;97612.81;;;8.05;82.12
40502;BME280;29631;49.168;9.848;2023-01-25T14:41:54;97648.63;;;8.30;81.99
40502;BME280;29631;49.168;9.848;2023-01-25T14:44:17;97639.59;;;8.25;82.33
40502;BME280;29631;49.168;9.848;2023-01-25T14:46:44;97649.56;;;8.37;82.11
40502;BME280;29631;49.168;9.848;2023-01-25T14:49:23;97643.84;;;8.34;82.67
40502;BME280;29631;49.168;9.848;2023-01-25T14:52:04;97632.69;;;8.32;81.70
40502;BME280;29631;49.168;9.848;2023-01-25T14:54:34;97618.25;;;8.28;82.49
40502;BME280;29631;49.168;9.848;2023-01-25T14:57:06;97631.06;;;8.31;82.51
40502;BME280;29631;49.168;9.848;2023-01-25T14:59:41;97620.38;;;8.32;82.26